sensor_id;sensor_type;location;lat;lon;timestamp;P1;durP1;ratioP1;P2;durP2;ratioP2
10142;SDS011;5112;54.088;13.446;2023-04-24T00:05:04;10.93;;;9.93;;
10142;SDS011;5112;54.088;13.446;2023-04-24T00:15:09;10.60;;;9.70;;
10142;SDS011;5112;54.088;13.446;2023-04-24T00:25:11;10.07;;;9.07;;
10142;SDS011;5112;54.088;13.446;2023-04-24T00:35:14;10.20;;;9.30;;
10142;SDS011;5112;54.088;13.446;2023-04-24T00:45:16;9.37;;;8.57;;
10142;SDS011;5112;54.088;13.446;2023-04-24T00:55:19;8.80;;;8.03;;
10142;SDS011;5112;54.088;13.446;2023-04-24T01:05:21;8.40;;;7.67;;
10142;SDS011;5112;54.088;13.446;2023-04-24T01:15:24;9.45;;;8.65;;
10142;SDS011;5112;54.088;13.446;2023-04-24T01:25:27;9.63;;;8.82;;
10142;SDS011;5112;54.088;13.446;2023-04-24T01:35:29;9.33;;;8.43;;
10142;SDS011;5112;54.088;13.446;2023-04-24T01:45:32;10.57;;;9.68;;
10142;SDS011;5112;54.088;13.446;2023-04-24T01:55:34;11.63;;;10.50;;
10142;SDS011;5112;54.088;13.446;2023-04-24T02:05:37;10.63;;;9.63;;
10142;SDS011;5112;54.088;13.446;2023-04-24T02:15:39;12.15;;;11.10;;
10142;SDS011;5112;54.088;13.446;2023-04-24T02:25:42;11.50;;;10.40;;
10142;SDS011;5112;54.088;13.446;2023-04-24T02:35:43;10.93;;;10.00;;
10142;SDS011;5112;54.088;13.446;2023-04-24T02:45:46;11.53;;;10.53;;
10142;SDS011;5112;54.088;13.446;2023-04-24T02:55:49;11.73;;;10.73;;
10142;SDS011;5112;54.088;13.446;2023-04-24T03:05:52;12.30;;;11.20;;
10142;SDS011;5112;54.088;13.446;2023-04-24T03:15:53;12.77;;;11.55;;
10142;SDS011;5112;54.088;13.446;2023-04-24T03:25:56;14.02;;;12.73;;
10142;SDS011;5112;54.088;13.446;2023-04-24T03:35:58;13.77;;;12.57;;
10142;SDS011;5112;54.088;13.446;2023-04-24T03:46:01;13.23;;;11.17;;
10142;SDS011;5112;54.088;13.446;2023-04-24T03:56:03;12.03;;;10.93;;
10142;SDS011;5112;54.088;13.446;2023-04-24T04:06:06;13.93;;;11.73;;
10142;SDS011;5112;54.088;13.446;2023-04-24T04:16:08;12.57;;;11.00;;
10142;SDS011;5112;54.088;13.446;2023-04-24T04:26:12;11.47;;;10.23;;
10142;SDS011;5112;54.088;13.446;2023-04-24T04:36:13;10.57;;;9.47;;
10142;SDS011;5112;54.088;13.446;2023-04-24T04:46:18;8.80;;;8.00;;
10142;SDS011;5112;54.088;13.446;2023-04-24T04:56:20;9.90;;;9.00;;
10142;SDS011;5112;54.088;13.446;2023-04-24T05:06:23;10.60;;;9.60;;
10142;SDS011;5112;54.088;13.446;2023-04-24T05:16:26;11.63;;;10.47;;
10142;SDS011;5112;54.088;13.446;2023-04-24T05:26:29;11.60;;;10.40;;
10142;SDS011;5112;54.088;13.446;2023-04-24T05:36:30;10.67;;;9.67;;
10142;SDS011;5112;54.088;13.446;2023-04-24T05:46:33;10.30;;;9.30;;
10142;SDS011;5112;54.088;13.446;2023-04-24T05:56:35;10.20;;;9.27;;
10142;SDS011;5112;54.088;13.446;2023-04-24T06:06:38;10.77;;;9.77;;
10142;SDS011;5112;54.088;13.446;2023-04-24T06:16:41;9.87;;;8.87;;
10142;SDS011;5112;54.088;13.446;2023-04-24T06:26:44;10.03;;;9.13;;
10142;SDS011;5112;54.088;13.446;2023-04-24T06:36:46;10.30;;;9.30;;
10142;SDS011;5112;54.088;13.446;2023-04-24T06:46:49;9.97;;;9.03;;
10142;SDS011;5112;54.088;13.446;2023-04-24T06:56:51;9.90;;;8.90;;
10142;SDS011;5112;54.088;13.446;2023-04-24T07:06:54;11.73;;;10.57;;
10142;SDS011;5112;54.088;13.446;2023-04-24T07:16:57;13.57;;;12.27;;
10142;SDS011;5112;54.088;13.446;2023-04-24T07:27:00;12.90;;;11.60;;
10142;SDS011;5112;54.088;13.446;2023-04-24T07:37:02;11.67;;;10.57;;
10142;SDS011;5112;54.088;13.446;2023-04-24T07:47:05;9.17;;;8.37;;
10142;SDS011;5112;54.088;13.446;2023-04-24T07:57:07;8.20;;;6.67;;
10142;SDS011;5112;54.088;13.446;2023-04-24T08:07:10;5.97;;;5.50;;
10142;SDS011;5112;54.088;13.446;2023-04-24T08:17:12;6.10;;;5.60;;
10142;SDS011;5112;54.088;13.446;2023-04-24T08:27:16;4.60;;;4.30;;
10142;SDS011;5112;54.088;13.446;2023-04-24T08:37:17;4.37;;;3.87;;
10142;SDS011;5112;54.088;13.446;2023-04-24T08:47:20;3.50;;;3.30;;
10142;SDS011;5112;54.088;13.446;2023-04-24T08:57:24;3.47;;;3.27;;
10142;SDS011;5112;54.088;13.446;2023-04-24T09:07:28;3.40;;;3.10;;
10142;SDS011;5112;54.088;13.446;2023-04-24T09:17:33;4.00;;;3.70;;
10142;SDS011;5112;54.088;13.446;2023-04-24T09:27:36;3.60;;;3.40;;
10142;SDS011;5112;54.088;13.446;2023-04-24T09:37:44;3.83;;;3.57;;
10142;SDS011;5112;54.088;13.446;2023-04-24T09:47:50;3.63;;;3.43;;
10142;SDS011;5112;54.088;13.446;2023-04-24T09:57:54;2.20;;;1.93;;
10142;SDS011;5112;54.088;13.446;2023-04-24T10:07:59;1.97;;;1.87;;
10142;SDS011;5112;54.088;13.446;2023-04-24T10:18:03;2.13;;;1.93;;
10142;SDS011;5112;54.088;13.446;2023-04-24T10:28:08;3.63;;;2.13;;
10142;SDS011;5112;54.088;13.446;2023-04-24T10:38:12;2.27;;;1.83;;
10142;SDS011;5112;54.088;13.446;2023-04-24T10:48:18;1.70;;;1.60;;
10142;SDS011;5112;54.088;13.446;2023-04-24T10:58:21;1.63;;;1.23;;
10142;SDS011;5112;54.088;13.446;2023-04-24T11:08:30;2.07;;;1.97;;
10142;SDS011;5112;54.088;13.446;2023-04-24T11:18:39;1.73;;;1.63;;
10142;SDS011;5112;54.088;13.446;2023-04-24T11:28:47;1.00;;;1.00;;
10142;SDS011;5112;54.088;13.446;2023-04-24T11:38:50;1.60;;;1.50;;
10142;SDS011;5112;54.088;13.446;2023-04-24T11:48:53;1.10;;;1.10;;
10142;SDS011;5112;54.088;13.446;2023-04-24T11:58:55;1.27;;;1.10;;
10142;SDS011;5112;54.088;13.446;2023-04-24T12:08:57;0.97;;;0.93;;
10142;SDS011;5112;54.088;13.446;2023-04-24T12:18:59;1.80;;;1.00;;
10142;SDS011;5112;54.088;13.446;2023-04-24T12:29:04;1.20;;;1.03;;
10142;SDS011;5112;54.088;13.446;2023-04-24T12:39:13;1.20;;;1.10;;
10142;SDS011;5112;54.088;13.446;2023-04-24T12:49:17;1.27;;;1.17;;
10142;SDS011;5112;54.088;13.446;2023-04-24T12:59:18;0.93;;;0.93;;
10142;SDS011;5112;54.088;13.446;2023-04-24T13:09:21;1.00;;;0.90;;
10142;SDS011;5112;54.088;13.446;2023-04-24T13:19:24;1.07;;;1.00;;
10142;SDS011;5112;54.088;13.446;2023-04-24T13:29:27;0.97;;;0.97;;
10142;SDS011;5112;54.088;13.446;2023-04-24T13:39:29;1.10;;;1.10;;
10142;SDS011;5112;54.088;13.446;2023-04-24T13:49:32;1.83;;;1.70;;
10142;SDS011;5112;54.088;13.446;2023-04-24T13:59:34;1.57;;;1.47;;
10142;SDS011;5112;54.088;13.446;2023-04-24T14:09:38;1.80;;;1.17;;
10142;SDS011;5112;54.088;13.446;2023-04-24T14:19:40;1.27;;;1.20;;
10142;SDS011;5112;54.088;13.446;2023-04-24T14:29:43;0.90;;;0.80;;
10142;SDS011;5112;54.088;13.446;2023-04-24T14:39:45;2.60;;;1.40;;
10142;SDS011;5112;54.088;13.446;2023-04-24T14:49:48;2.90;;;1.07;;
10142;SDS011;5112;54.088;13.446;2023-04-24T14:59:50;0.80;;;0.70;;
10142;SDS011;5112;54.088;13.446;2023-04-24T15:09:53;1.03;;;0.50;;
10142;SDS011;5112;54.088;13.446;2023-04-24T15:19:55;0.57;;;0.57;;
10142;SDS011;5112;54.088;13.446;2023-04-24T15:29:58;0.70;;;0.70;;
10142;SDS011;5112;54.088;13.446;2023-04-24T15:40:00;1.50;;;0.87;;
10142;SDS011;5112;54.088;13.446;2023-04-24T15:50:09;0.60;;;0.60;;
10142;SDS011;5112;54.088;13.446;2023-04-24T16:00:11;0.70;;;0.70;;
10142;SDS011;5112;54.088;13.446;2023-04-24T16:10:14;2.13;;;1.50;;
10142;SDS011;5112;54.088;13.446;2023-04-24T16:20:16;1.77;;;1.67;;
10142;SDS011;5112;54.088;13.446;2023-04-24T16:30:19;1.67;;;1.57;;
10142;SDS011;5112;54.088;13.446;2023-04-24T16:40:21;2.50;;;2.30;;
10142;SDS011;5112;54.088;13.446;2023-04-24T16:50:24;2.80;;;2.40;;
10142;SDS011;5112;54.088;13.446;2023-04-24T17:00:26;2.80;;;2.60;;
10142;SDS011;5112;54.088;13.446;2023-04-24T17:10:29;2.83;;;2.63;;
10142;SDS011;5112;54.088;13.446;2023-04-24T17:20:32;3.50;;;3.30;;
10142;SDS011;5112;54.088;13.446;2023-04-24T17:30:35;3.00;;;2.80;;
10142;SDS011;5112;54.088;13.446;2023-04-24T17:40:36;3.53;;;3.27;;
10142;SDS011;5112;54.088;13.446;2023-04-24T17:50:40;3.23;;;2.93;;
10142;SDS011;5112;54.088;13.446;2023-04-24T18:00:42;5.50;;;2.87;;
10142;SDS011;5112;54.088;13.446;2023-04-24T18:10:45;3.53;;;3.23;;
10142;SDS011;5112;54.088;13.446;2023-04-24T18:20:47;3.00;;;2.80;;
10142;SDS011;5112;54.088;13.446;2023-04-24T18:30:50;3.17;;;2.83;;
10142;SDS011;5112;54.088;13.446;2023-04-24T18:40:52;3.00;;;2.80;;
10142;SDS011;5112;54.088;13.446;2023-04-24T18:50:55;2.60;;;2.40;;
10142;SDS011;5112;54.088;13.446;2023-04-24T19:00:56;2.20;;;2.00;;
10142;SDS011;5112;54.088;13.446;2023-04-24T19:10:59;1.90;;;1.80;;
10142;SDS011;5112;54.088;13.446;2023-04-24T19:21:01;1.97;;;1.63;;
10142;SDS011;5112;54.088;13.446;2023-04-24T19:31:04;1.90;;;1.80;;
10142;SDS011;5112;54.088;13.446;2023-04-24T19:41:06;1.85;;;1.75;;
10142;SDS011;5112;54.088;13.446;2023-04-24T19:51:09;1.80;;;1.70;;
10142;SDS011;5112;54.088;13.446;2023-04-24T20:01:10;0.97;;;0.70;;
10142;SDS011;5112;54.088;13.446;2023-04-24T20:11:13;0.90;;;0.90;;
10142;SDS011;5112;54.088;13.446;2023-04-24T20:21:15;1.30;;;1.00;;
10142;SDS011;5112;54.088;13.446;2023-04-24T20:31:18;3.23;;;1.83;;
10142;SDS011;5112;54.088;13.446;2023-04-24T20:41:20;1.13;;;1.07;;
10142;SDS011;5112;54.088;13.446;2023-04-24T20:51:23;2.20;;;2.10;;
10142;SDS011;5112;54.088;13.446;2023-04-24T21:01:25;2.90;;;2.57;;
10142;SDS011;5112;54.088;13.446;2023-04-24T21:11:30;3.40;;;3.10;;
10142;SDS011;5112;54.088;13.446;2023-04-24T21:21:31;3.90;;;3.60;;
10142;SDS011;5112;54.088;13.446;2023-04-24T21:31:35;3.50;;;3.30;;
10142;SDS011;5112;54.088;13.446;2023-04-24T21:41:36;4.20;;;3.80;;
10142;SDS011;5112;54.088;13.446;2023-04-24T21:51:39;3.50;;;3.27;;
10142;SDS011;5112;54.088;13.446;2023-04-24T22:01:41;3.67;;;3.37;;
10142;SDS011;5112;54.088;13.446;2023-04-24T22:11:44;3.30;;;3.10;;
10142;SDS011;5112;54.088;13.446;2023-04-24T22:21:46;3.50;;;3.20;;
10142;SDS011;5112;54.088;13.446;2023-04-24T22:31:49;3.50;;;3.17;;
10142;SDS011;5112;54.088;13.446;2023-04-24T22:41:51;3.35;;;3.05;;
10142;SDS011;5112;54.088;13.446;2023-04-24T22:51:54;3.67;;;3.37;;
10142;SDS011;5112;54.088;13.446;2023-04-24T23:01:56;4.35;;;3.40;;
10142;SDS011;5112;54.088;13.446;2023-04-24T23:12:02;4.03;;;3.72;;
10142;SDS011;5112;54.088;13.446;2023-04-24T23:22:04;4.17;;;3.77;;
10142;SDS011;5112;54.088;13.446;2023-04-24T23:32:07;4.53;;;3.97;;
10142;SDS011;5112;54.088;13.446;2023-04-24T23:42:08;4.73;;;3.63;;
10142;SDS011;5112;54.088;13.446;2023-04-24T23:52:12;5.03;;;4.00;;
